AAL955 KDCA-KSDF
Flight info
| Callsign | AAL955 |
|---|---|
| Flight time | N/A |
| Altitude | 38000 |
| Route | REBLL5 OTTTO Q68 YOCKY LEDDL1 |
| Aircraft | A319/M-SDE3FGHIRWY/LB1 |
Departure
| Time | 2026-05-01 12:37 |
|---|---|
| Airport | Ronald Reagan Washington National Airport (KDCA) |
Arrival
| Time | N/A |
|---|---|
| Airport | Louisville Muhammad Ali International Airport (KSDF) |
| Time | Latitude | Longitude | Altitude | Speed | Heading |
|---|---|---|---|---|---|
| 2026-05-01 12:20 | 38.85557 | -77.04274 | 12 ft | 0 kts | 338° |
| 2026-05-01 12:29 | 38.85541 | -77.04266 | 24 ft | 4 kts | 338° |
| 2026-05-01 12:30 | 38.85507 | -77.04251 | 26 ft | 4 kts | 25° |
| 2026-05-01 12:30 | 38.85492 | -77.04273 | 24 ft | 3 kts | 72° |
| 2026-05-01 12:30 | 38.85496 | -77.04254 | 24 ft | 4 kts | 72° |
| 2026-05-01 12:31 | 38.85498 | -77.04246 | 25 ft | 0 kts | 72° |
| 2026-05-01 12:32 | 38.85501 | -77.04237 | 27 ft | 3 kts | 72° |
| 2026-05-01 12:32 | 38.85513 | -77.04187 | 27 ft | 8 kts | 72° |
| 2026-05-01 12:33 | 38.85534 | -77.04103 | 25 ft | 12 kts | 72° |
| 2026-05-01 12:33 | 38.85558 | -77.03990 | 26 ft | 13 kts | 92° |
| 2026-05-01 12:33 | 38.85481 | -77.03948 | 27 ft | 14 kts | 176° |
| 2026-05-01 12:33 | 38.85373 | -77.03939 | 24 ft | 18 kts | 175° |
| 2026-05-01 12:34 | 38.85239 | -77.03926 | 26 ft | 21 kts | 175° |
| 2026-05-01 12:34 | 38.85093 | -77.03911 | 24 ft | 21 kts | 175° |
| 2026-05-01 12:34 | 38.84946 | -77.03896 | 24 ft | 21 kts | 175° |
| 2026-05-01 12:34 | 38.84799 | -77.03882 | 24 ft | 21 kts | 175° |
| 2026-05-01 12:35 | 38.84654 | -77.03867 | 25 ft | 21 kts | 175° |
| 2026-05-01 12:35 | 38.84509 | -77.03852 | 24 ft | 21 kts | 176° |
| 2026-05-01 12:35 | 38.84365 | -77.03838 | 25 ft | 20 kts | 175° |
| 2026-05-01 12:35 | 38.84267 | -77.03828 | 24 ft | 11 kts | 175° |
| 2026-05-01 12:36 | 38.84211 | -77.03767 | 26 ft | 12 kts | 122° |
| 2026-05-01 12:36 | 38.84177 | -77.03697 | 24 ft | 6 kts | 114° |
| 2026-05-01 12:36 | 38.84205 | -77.03682 | 24 ft | 6 kts | 356° |
| 2026-05-01 12:36 | 38.84373 | -77.03698 | 24 ft | 60 kts | 356° |
| 2026-05-01 12:37 | 38.85030 | -77.03763 | 24 ft | 126 kts | 355° |
| 2026-05-01 12:37 | 38.86015 | -77.03873 | 391 ft | 143 kts | 354° |
| 2026-05-01 12:37 | 38.86995 | -77.04079 | 1047 ft | 144 kts | 339° |
| 2026-05-01 12:37 | 38.87830 | -77.04773 | 1716 ft | 144 kts | 320° |
| 2026-05-01 12:38 | 38.88629 | -77.05625 | 2144 ft | 161 kts | 322° |
| 2026-05-01 12:38 | 38.89557 | -77.06609 | 2513 ft | 184 kts | 321° |
| 2026-05-01 12:38 | 38.90406 | -77.07988 | 2891 ft | 210 kts | 301° |
| 2026-05-01 12:38 | 38.91150 | -77.09734 | 3306 ft | 235 kts | 302° |
| 2026-05-01 12:39 | 38.92281 | -77.11297 | 4013 ft | 245 kts | 327° |
| 2026-05-01 12:39 | 38.93747 | -77.12437 | 5051 ft | 247 kts | 329° |
| 2026-05-01 12:39 | 38.95207 | -77.13614 | 6037 ft | 250 kts | 321° |
| 2026-05-01 12:39 | 38.96392 | -77.15260 | 6930 ft | 254 kts | 303° |
| 2026-05-01 12:40 | 38.97093 | -77.17353 | 7840 ft | 259 kts | 284° |
| 2026-05-01 12:40 | 38.97436 | -77.19644 | 8791 ft | 262 kts | 281° |
| 2026-05-01 12:40 | 38.97769 | -77.21922 | 9745 ft | 264 kts | 281° |
| 2026-05-01 12:40 | 38.98116 | -77.24279 | 10403 ft | 278 kts | 279° |
| 2026-05-01 12:41 | 38.98251 | -77.26894 | 10704 ft | 302 kts | 268° |
| 2026-05-01 12:41 | 38.97918 | -77.29598 | 11179 ft | 317 kts | 256° |
| 2026-05-01 12:41 | 38.97130 | -77.32277 | 11962 ft | 323 kts | 249° |
| 2026-05-01 12:41 | 38.96268 | -77.34949 | 12809 ft | 324 kts | 250° |
| 2026-05-01 12:42 | 38.95409 | -77.37638 | 13667 ft | 326 kts | 250° |
| 2026-05-01 12:42 | 38.94546 | -77.40341 | 14437 ft | 328 kts | 250° |
| 2026-05-01 12:42 | 38.93680 | -77.43055 | 15186 ft | 329 kts | 250° |
| 2026-05-01 12:42 | 38.92808 | -77.45787 | 15930 ft | 330 kts | 250° |
| 2026-05-01 12:43 | 38.91932 | -77.48522 | 16674 ft | 332 kts | 250° |
| 2026-05-01 12:43 | 38.91051 | -77.51261 | 17409 ft | 333 kts | 250° |
| 2026-05-01 12:43 | 38.90162 | -77.54024 | 18132 ft | 335 kts | 250° |
| 2026-05-01 12:43 | 38.89274 | -77.56791 | 18806 ft | 336 kts | 251° |
| 2026-05-01 12:44 | 38.88645 | -77.59634 | 19411 ft | 335 kts | 261° |
| 2026-05-01 12:44 | 38.88233 | -77.62596 | 20037 ft | 337 kts | 261° |
| 2026-05-01 12:44 | 38.87392 | -77.68551 | 21273 ft | 341 kts | 261° |
| 2026-05-01 12:45 | 38.86529 | -77.74576 | 22472 ft | 345 kts | 261° |
| 2026-05-01 12:45 | 38.86093 | -77.77611 | 23039 ft | 347 kts | 261° |
| 2026-05-01 12:45 | 38.85663 | -77.80623 | 23584 ft | 349 kts | 261° |
| 2026-05-01 12:46 | 38.85225 | -77.83695 | 24035 ft | 351 kts | 261° |
| 2026-05-01 12:46 | 38.84784 | -77.86774 | 24532 ft | 351 kts | 261° |
| 2026-05-01 12:46 | 38.84561 | -77.89882 | 25016 ft | 350 kts | 270° |
| 2026-05-01 12:46 | 38.84650 | -77.93001 | 25508 ft | 350 kts | 272° |
| 2026-05-01 12:47 | 38.84749 | -77.96124 | 26030 ft | 349 kts | 272° |
| 2026-05-01 12:47 | 38.84843 | -77.99227 | 26534 ft | 349 kts | 272° |
| 2026-05-01 12:47 | 38.84933 | -78.02335 | 26994 ft | 349 kts | 271° |
| 2026-05-01 12:47 | 38.85021 | -78.05440 | 27474 ft | 348 kts | 272° |
| 2026-05-01 12:48 | 38.85109 | -78.08552 | 27929 ft | 348 kts | 272° |
| 2026-05-01 12:48 | 38.85195 | -78.11657 | 28394 ft | 348 kts | 272° |
| 2026-05-01 12:48 | 38.85281 | -78.14758 | 28836 ft | 348 kts | 272° |
| 2026-05-01 12:48 | 38.85367 | -78.17860 | 29261 ft | 348 kts | 272° |
| 2026-05-01 12:49 | 38.85447 | -78.20924 | 29641 ft | 349 kts | 271° |
| 2026-05-01 12:49 | 38.85484 | -78.24047 | 30098 ft | 349 kts | 270° |
| 2026-05-01 12:49 | 38.85477 | -78.27153 | 30433 ft | 349 kts | 270° |
| 2026-05-01 12:49 | 38.85447 | -78.30282 | 30697 ft | 351 kts | 270° |
| 2026-05-01 12:50 | 38.85413 | -78.33416 | 31025 ft | 351 kts | 270° |
| 2026-05-01 12:50 | 38.85370 | -78.36540 | 31376 ft | 350 kts | 268° |
| 2026-05-01 12:50 | 38.85015 | -78.39633 | 31732 ft | 352 kts | 262° |
| 2026-05-01 12:50 | 38.84507 | -78.42702 | 32111 ft | 351 kts | 262° |
| 2026-05-01 12:51 | 38.84002 | -78.45765 | 32458 ft | 351 kts | 262° |
| 2026-05-01 12:51 | 38.83497 | -78.48832 | 32799 ft | 350 kts | 262° |
| 2026-05-01 12:51 | 38.82494 | -78.54939 | 33546 ft | 349 kts | 263° |
| 2026-05-01 12:52 | 38.81998 | -78.57950 | 33899 ft | 349 kts | 263° |
| 2026-05-01 12:52 | 38.80992 | -78.64038 | 34490 ft | 349 kts | 263° |
| 2026-05-01 12:52 | 38.80487 | -78.67087 | 34747 ft | 350 kts | 262° |
| 2026-05-01 12:53 | 38.79475 | -78.73180 | 35313 ft | 348 kts | 262° |
| 2026-05-01 12:53 | 38.78971 | -78.76219 | 35568 ft | 348 kts | 262° |
| 2026-05-01 12:53 | 38.78467 | -78.79248 | 35786 ft | 349 kts | 262° |
| 2026-05-01 12:54 | 38.77959 | -78.82300 | 35997 ft | 350 kts | 262° |
| 2026-05-01 12:54 | 38.76934 | -78.88401 | 36442 ft | 351 kts | 262° |
| 2026-05-01 12:54 | 38.76420 | -78.91470 | 36682 ft | 352 kts | 262° |
| 2026-05-01 12:55 | 38.75388 | -78.97608 | 37107 ft | 353 kts | 262° |
| 2026-05-01 12:55 | 38.74871 | -79.00680 | 37306 ft | 354 kts | 262° |
| 2026-05-01 12:55 | 38.74349 | -79.03773 | 37477 ft | 355 kts | 262° |
| 2026-05-01 12:56 | 38.73823 | -79.06866 | 37678 ft | 355 kts | 261° |
| 2026-05-01 12:56 | 38.73299 | -79.09946 | 37857 ft | 355 kts | 262° |
| 2026-05-01 12:56 | 38.72776 | -79.13010 | 38025 ft | 356 kts | 262° |
| 2026-05-01 12:57 | 38.71718 | -79.19199 | 38059 ft | 355 kts | 261° |
| 2026-05-01 12:57 | 38.70146 | -79.28461 | 38059 ft | 355 kts | 262° |
| 2026-05-01 12:58 | 38.69136 | -79.34647 | 38063 ft | 355 kts | 262° |
| 2026-05-01 12:59 | 38.67602 | -79.43942 | 38085 ft | 357 kts | 262° |
| 2026-05-01 12:59 | 38.66050 | -79.53275 | 38081 ft | 356 kts | 262° |
| 2026-05-01 13:00 | 38.64510 | -79.62543 | 38065 ft | 354 kts | 262° |
| 2026-05-01 13:01 | 38.62965 | -79.71720 | 38078 ft | 353 kts | 261° |
| 2026-05-01 13:02 | 38.61321 | -79.80882 | 38088 ft | 352 kts | 261° |
| 2026-05-01 13:07 | 38.57066 | -80.44927 | 38066 ft | 345 kts | 274° |
| 2026-05-01 13:07 | 38.57217 | -80.47987 | 38058 ft | 345 kts | 274° |
| 2026-05-01 13:08 | 38.57509 | -80.54079 | 38049 ft | 346 kts | 273° |
| 2026-05-01 13:08 | 38.57761 | -80.60209 | 38056 ft | 345 kts | 269° |
| 2026-05-01 13:09 | 38.57257 | -80.64240 | 38060 ft | 348 kts | 260° |